KMOT/MOT METAR and TAF weather

Enter ICAO airport designator
Station Type Date Time Source
KMOT METAR 2019/06/27 03:54 UTC NOAA

KMOT 270354Z AUTO 18003KT 10SM CLR 23/12 A2998 RMK AO2 SLP145 T02330122


Station Type Date Time Source
KMOT Decoded METAR 2019/06/27 03:54 UTC NOAA

MINOT INTERNATIONAL AIRPORT , ND, United States (KMOT) 48-16N 101-17W 519M
Jun 26, 2019 - 11:54 PM EDT / 2019.06.27 0354 UTC
Wind: from the S (180 degrees) at 3 MPH (3 KT):0
Visibility: 10 mile(s):0
Sky conditions: clear
Temperature: 73.9 F (23.3 C)
Dew Point: 54.0 F (12.2 C)
Relative Humidity: 49%
Pressure (altimeter): 29.98 in. Hg (1015 hPa)
ob: KMOT 270354Z AUTO 18003KT 10SM CLR 23/12 A2998 RMK AO2 SLP145 T02330122
cycle: 4

Station Type Date Time Source
KMOT TAF 2019/06/26 18:28 UTC NOAA

TAF KMOT 261726Z 2618/2718 20005KT P6SM FEW150
FM271000 03009KT P6SM FEW060 FEW250

Example: see airport list